Accueil
METAR-TAF:

METAR-TAF

Aéroports :

Aéroport international de Pécs-Pogány

Pécs, Hongrie

latitude: 46-06N, longitude: 018-14E, altitude: 201 m

Observation

Le bulletin a été fait il y a 35 minutes, à 15:45 UTC
Vent 6 kt de sud-ouest, variant entre sud/sud-ouest et ouest/nord-ouest
Température 22°C
Humidité 43%
Pression 1016 hPa
Visibilité 10 km ou plus
pas de nuages en-dessous de 1500 mètres et pas de cumulonimbus.

METAR: LHPP 141545Z AUTO 23006KT 200V300 CAVOK 22/09 Q1016

Heure: 18:20 (16:20 UTC)

Prévision

Le bulletin a été fait il y a 2 heures et 5 minutes, à 14:15 UTC
Prévision valable du 14 à 15 UTC au 14 à 24 UTC
Vent 8 kt de ouest
Visibilité 10 km ou plus
pas de nuages en-dessous de 1500 mètres et pas de cumulonimbus.
Evoluant progressivement
du 14 à 16 UTC au 14 à 19 UTC
Vent 3 kt de direction variable

TAF: LHPP 141415Z 1415/1424 26008KT CAVOK BECMG 1416/1419 VRB03KT

Observations et prévisions météorologiques de plus de 4000 aéroports (messages METAR et TAF).

Les stations disponibles sont représentées par des disques jaunes et rouges sur la carte.

Passer la souris dessus pour voir le nom de la station.

Cliquer dessus pour voir les observations et prévisions météorologiques.

Pour changer de carte: cliquez sur les boutons verts avec une croix noire pour zoomer, sur le bouton vert avec un tiret pour effectuer un zoom arrière, ou sur les flèches vertes pour les cartes adjacentes.


METAR-TAF: